sensor_id;sensor_type;location;lat;lon;timestamp;P1;durP1;ratioP1;P2;durP2;ratioP2
5813;SDS011;2933;52.302;8.134;2024-02-14T00:03:13;2.20;;;2.10;;
5813;SDS011;2933;52.302;8.134;2024-02-14T00:08:14;4.93;;;2.40;;
5813;SDS011;2933;52.302;8.134;2024-02-14T00:13:18;5.13;;;3.10;;
5813;SDS011;2933;52.302;8.134;2024-02-14T00:18:20;3.43;;;1.93;;
5813;SDS011;2933;52.302;8.134;2024-02-14T00:23:22;2.40;;;2.20;;
5813;SDS011;2933;52.302;8.134;2024-02-14T00:28:25;4.83;;;2.17;;
5813;SDS011;2933;52.302;8.134;2024-02-14T00:33:27;5.23;;;1.90;;
5813;SDS011;2933;52.302;8.134;2024-02-14T00:38:29;2.40;;;2.30;;
5813;SDS011;2933;52.302;8.134;2024-02-14T00:43:32;10.57;;;2.40;;
5813;SDS011;2933;52.302;8.134;2024-02-14T00:48:33;7.47;;;2.93;;
5813;SDS011;2933;52.302;8.134;2024-02-14T00:53:35;2.90;;;2.53;;
5813;SDS011;2933;52.302;8.134;2024-02-14T00:58:38;3.67;;;2.60;;
5813;SDS011;2933;52.302;8.134;2024-02-14T01:03:40;3.50;;;2.53;;
5813;SDS011;2933;52.302;8.134;2024-02-14T01:08:41;4.73;;;2.33;;
5813;SDS011;2933;52.302;8.134;2024-02-14T01:13:44;3.47;;;2.90;;
5813;SDS011;2933;52.302;8.134;2024-02-14T01:18:46;2.33;;;2.13;;
5813;SDS011;2933;52.302;8.134;2024-02-14T01:23:48;3.03;;;2.53;;
5813;SDS011;2933;52.302;8.134;2024-02-14T01:28:50;12.27;;;2.50;;
5813;SDS011;2933;52.302;8.134;2024-02-14T01:33:52;5.27;;;3.47;;
5813;SDS011;2933;52.302;8.134;2024-02-14T01:38:54;10.10;;;2.93;;
5813;SDS011;2933;52.302;8.134;2024-02-14T01:43:57;6.87;;;3.03;;
5813;SDS011;2933;52.302;8.134;2024-02-14T01:48:59;2.67;;;2.57;;
5813;SDS011;2933;52.302;8.134;2024-02-14T01:54:01;4.00;;;2.93;;
5813;SDS011;2933;52.302;8.134;2024-02-14T01:59:05;4.73;;;3.30;;
5813;SDS011;2933;52.302;8.134;2024-02-14T02:04:09;3.17;;;2.87;;
5813;SDS011;2933;52.302;8.134;2024-02-14T02:09:10;2.17;;;2.07;;
5813;SDS011;2933;52.302;8.134;2024-02-14T02:14:13;8.90;;;3.30;;
5813;SDS011;2933;52.302;8.134;2024-02-14T02:19:16;3.13;;;2.80;;
5813;SDS011;2933;52.302;8.134;2024-02-14T02:24:19;3.40;;;3.20;;
5813;SDS011;2933;52.302;8.134;2024-02-14T02:29:21;6.30;;;3.23;;
5813;SDS011;2933;52.302;8.134;2024-02-14T02:34:22;4.73;;;3.23;;
5813;SDS011;2933;52.302;8.134;2024-02-14T02:39:25;4.17;;;3.57;;
5813;SDS011;2933;52.302;8.134;2024-02-14T02:44:27;3.20;;;3.00;;
5813;SDS011;2933;52.302;8.134;2024-02-14T02:49:29;4.63;;;3.50;;
5813;SDS011;2933;52.302;8.134;2024-02-14T02:54:32;3.77;;;3.30;;
5813;SDS011;2933;52.302;8.134;2024-02-14T02:59:34;4.00;;;3.60;;
5813;SDS011;2933;52.302;8.134;2024-02-14T03:04:35;4.23;;;2.63;;
5813;SDS011;2933;52.302;8.134;2024-02-14T03:09:38;3.87;;;3.17;;
5813;SDS011;2933;52.302;8.134;2024-02-14T03:14:40;2.90;;;2.80;;
5813;SDS011;2933;52.302;8.134;2024-02-14T03:19:44;3.43;;;3.20;;
5813;SDS011;2933;52.302;8.134;2024-02-14T03:24:47;5.40;;;3.10;;
5813;SDS011;2933;52.302;8.134;2024-02-14T03:29:49;3.67;;;3.37;;
5813;SDS011;2933;52.302;8.134;2024-02-14T03:34:51;3.40;;;3.20;;
5813;SDS011;2933;52.302;8.134;2024-02-14T03:39:54;3.97;;;3.77;;
5813;SDS011;2933;52.302;8.134;2024-02-14T03:44:56;5.93;;;4.10;;
5813;SDS011;2933;52.302;8.134;2024-02-14T03:50:03;4.73;;;4.23;;
5813;SDS011;2933;52.302;8.134;2024-02-14T03:55:07;4.17;;;3.77;;
5813;SDS011;2933;52.302;8.134;2024-02-14T04:00:13;6.23;;;4.10;;
5813;SDS011;2933;52.302;8.134;2024-02-14T04:05:16;4.50;;;4.20;;
5813;SDS011;2933;52.302;8.134;2024-02-14T04:10:19;4.23;;;3.80;;
5813;SDS011;2933;52.302;8.134;2024-02-14T04:15:21;6.10;;;3.90;;
5813;SDS011;2933;52.302;8.134;2024-02-14T04:20:22;10.40;;;4.70;;
5813;SDS011;2933;52.302;8.134;2024-02-14T04:25:25;6.30;;;4.30;;
5813;SDS011;2933;52.302;8.134;2024-02-14T04:30:27;4.67;;;4.33;;
5813;SDS011;2933;52.302;8.134;2024-02-14T04:35:28;8.00;;;3.83;;
5813;SDS011;2933;52.302;8.134;2024-02-14T04:40:31;5.60;;;4.53;;
5813;SDS011;2933;52.302;8.134;2024-02-14T04:45:33;5.73;;;4.60;;
5813;SDS011;2933;52.302;8.134;2024-02-14T04:50:35;4.03;;;3.77;;
5813;SDS011;2933;52.302;8.134;2024-02-14T04:55:38;5.63;;;5.13;;
5813;SDS011;2933;52.302;8.134;2024-02-14T05:00:40;4.93;;;4.63;;
5813;SDS011;2933;52.302;8.134;2024-02-14T05:05:41;4.70;;;4.20;;
5813;SDS011;2933;52.302;8.134;2024-02-14T05:10:45;8.97;;;4.27;;
5813;SDS011;2933;52.302;8.134;2024-02-14T05:15:46;7.27;;;4.23;;
5813;SDS011;2933;52.302;8.134;2024-02-14T05:20:48;3.97;;;3.67;;
5813;SDS011;2933;52.302;8.134;2024-02-14T05:25:52;3.87;;;3.67;;
5813;SDS011;2933;52.302;8.134;2024-02-14T05:30:54;3.27;;;3.07;;
5813;SDS011;2933;52.302;8.134;2024-02-14T05:35:55;3.53;;;3.33;;
5813;SDS011;2933;52.302;8.134;2024-02-14T05:40:58;3.50;;;3.30;;
5813;SDS011;2933;52.302;8.134;2024-02-14T05:46:00;3.90;;;3.60;;
5813;SDS011;2933;52.302;8.134;2024-02-14T05:51:02;4.03;;;3.77;;
5813;SDS011;2933;52.302;8.134;2024-02-14T05:56:05;4.03;;;3.70;;
5813;SDS011;2933;52.302;8.134;2024-02-14T06:01:07;3.87;;;3.67;;
5813;SDS011;2933;52.302;8.134;2024-02-14T06:06:09;3.90;;;3.60;;
5813;SDS011;2933;52.302;8.134;2024-02-14T06:11:12;4.20;;;3.83;;
5813;SDS011;2933;52.302;8.134;2024-02-14T06:16:16;4.03;;;3.53;;
5813;SDS011;2933;52.302;8.134;2024-02-14T06:21:17;3.97;;;3.70;;
5813;SDS011;2933;52.302;8.134;2024-02-14T06:26:20;3.50;;;3.30;;
5813;SDS011;2933;52.302;8.134;2024-02-14T06:31:22;3.53;;;3.30;;
5813;SDS011;2933;52.302;8.134;2024-02-14T06:36:24;4.00;;;3.70;;
5813;SDS011;2933;52.302;8.134;2024-02-14T06:41:27;4.73;;;4.20;;
5813;SDS011;2933;52.302;8.134;2024-02-14T06:46:29;5.10;;;4.70;;
5813;SDS011;2933;52.302;8.134;2024-02-14T06:51:31;4.97;;;4.47;;
5813;SDS011;2933;52.302;8.134;2024-02-14T06:56:34;5.87;;;5.37;;
5813;SDS011;2933;52.302;8.134;2024-02-14T07:01:36;6.63;;;5.10;;
5813;SDS011;2933;52.302;8.134;2024-02-14T07:06:38;4.23;;;3.93;;
5813;SDS011;2933;52.302;8.134;2024-02-14T07:11:41;6.50;;;5.80;;
5813;SDS011;2933;52.302;8.134;2024-02-14T07:16:42;7.33;;;5.93;;
5813;SDS011;2933;52.302;8.134;2024-02-14T07:21:44;6.90;;;5.70;;
5813;SDS011;2933;52.302;8.134;2024-02-14T07:26:47;13.70;;;7.60;;
5813;SDS011;2933;52.302;8.134;2024-02-14T07:31:49;9.23;;;6.70;;
5813;SDS011;2933;52.302;8.134;2024-02-14T07:36:50;11.37;;;7.67;;
5813;SDS011;2933;52.302;8.134;2024-02-14T07:41:53;10.10;;;8.00;;
5813;SDS011;2933;52.302;8.134;2024-02-14T07:46:56;12.60;;;8.20;;
5813;SDS011;2933;52.302;8.134;2024-02-14T07:51:58;11.67;;;7.33;;
5813;SDS011;2933;52.302;8.134;2024-02-14T07:57:01;14.70;;;8.20;;
5813;SDS011;2933;52.302;8.134;2024-02-14T08:02:03;13.60;;;8.20;;
5813;SDS011;2933;52.302;8.134;2024-02-14T08:07:05;12.00;;;8.03;;
5813;SDS011;2933;52.302;8.134;2024-02-14T08:12:08;11.90;;;7.60;;
5813;SDS011;2933;52.302;8.134;2024-02-14T08:17:10;10.40;;;7.70;;
5813;SDS011;2933;52.302;8.134;2024-02-14T08:22:12;10.97;;;7.50;;
5813;SDS011;2933;52.302;8.134;2024-02-14T08:27:15;13.77;;;8.20;;
5813;SDS011;2933;52.302;8.134;2024-02-14T08:32:16;9.10;;;7.17;;
5813;SDS011;2933;52.302;8.134;2024-02-14T08:37:18;9.97;;;7.40;;
5813;SDS011;2933;52.302;8.134;2024-02-14T08:42:21;9.00;;;7.00;;
5813;SDS011;2933;52.302;8.134;2024-02-14T08:47:23;9.33;;;7.73;;
5813;SDS011;2933;52.302;8.134;2024-02-14T08:52:24;12.10;;;6.60;;
5813;SDS011;2933;52.302;8.134;2024-02-14T08:57:28;7.43;;;6.53;;
5813;SDS011;2933;52.302;8.134;2024-02-14T09:02:31;13.83;;;7.70;;
5813;SDS011;2933;52.302;8.134;2024-02-14T09:07:35;9.53;;;6.40;;
5813;SDS011;2933;52.302;8.134;2024-02-14T09:12:38;9.80;;;6.63;;
5813;SDS011;2933;52.302;8.134;2024-02-14T09:17:41;7.43;;;6.00;;
5813;SDS011;2933;52.302;8.134;2024-02-14T09:22:43;7.90;;;6.17;;
5813;SDS011;2933;52.302;8.134;2024-02-14T09:27:45;6.57;;;5.93;;
5813;SDS011;2933;52.302;8.134;2024-02-14T09:32:48;6.93;;;5.50;;
5813;SDS011;2933;52.302;8.134;2024-02-14T09:37:51;7.43;;;6.23;;
5813;SDS011;2933;52.302;8.134;2024-02-14T09:42:54;9.30;;;6.67;;
5813;SDS011;2933;52.302;8.134;2024-02-14T09:47:58;7.37;;;5.80;;
5813;SDS011;2933;52.302;8.134;2024-02-14T09:53:00;10.90;;;6.70;;
5813;SDS011;2933;52.302;8.134;2024-02-14T09:58:04;8.73;;;6.43;;
5813;SDS011;2933;52.302;8.134;2024-02-14T10:03:07;10.20;;;5.93;;
5813;SDS011;2933;52.302;8.134;2024-02-14T10:08:08;7.10;;;6.10;;
5813;SDS011;2933;52.302;8.134;2024-02-14T10:13:13;9.27;;;7.00;;
5813;SDS011;2933;52.302;8.134;2024-02-14T10:18:16;9.00;;;6.70;;
5813;SDS011;2933;52.302;8.134;2024-02-14T10:23:17;11.93;;;6.63;;
5813;SDS011;2933;52.302;8.134;2024-02-14T10:28:21;10.53;;;7.43;;
5813;SDS011;2933;52.302;8.134;2024-02-14T10:33:23;13.83;;;8.70;;
5813;SDS011;2933;52.302;8.134;2024-02-14T10:38:25;11.30;;;8.57;;
5813;SDS011;2933;52.302;8.134;2024-02-14T10:43:32;11.20;;;7.53;;
5813;SDS011;2933;52.302;8.134;2024-02-14T10:48:34;14.37;;;8.00;;
5813;SDS011;2933;52.302;8.134;2024-02-14T10:53:39;15.20;;;9.40;;
5813;SDS011;2933;52.302;8.134;2024-02-14T10:58:46;14.43;;;8.17;;
5813;SDS011;2933;52.302;8.134;2024-02-14T11:03:48;12.70;;;8.17;;
5813;SDS011;2933;52.302;8.134;2024-02-14T11:08:57;11.00;;;8.10;;
5813;SDS011;2933;52.302;8.134;2024-02-14T11:14:01;14.10;;;8.17;;
5813;SDS011;2933;52.302;8.134;2024-02-14T11:19:07;12.47;;;6.93;;
5813;SDS011;2933;52.302;8.134;2024-02-14T11:24:10;11.20;;;7.53;;
5813;SDS011;2933;52.302;8.134;2024-02-14T11:29:16;9.53;;;6.33;;
5813;SDS011;2933;52.302;8.134;2024-02-14T11:34:18;8.93;;;7.13;;
5813;SDS011;2933;52.302;8.134;2024-02-14T11:39:20;12.63;;;7.83;;
5813;SDS011;2933;52.302;8.134;2024-02-14T11:44:23;15.97;;;8.70;;
5813;SDS011;2933;52.302;8.134;2024-02-14T11:49:25;13.50;;;8.77;;
5813;SDS011;2933;52.302;8.134;2024-02-14T11:54:27;15.20;;;8.93;;
5813;SDS011;2933;52.302;8.134;2024-02-14T11:59:30;14.47;;;9.27;;
5813;SDS011;2933;52.302;8.134;2024-02-14T12:04:32;14.07;;;8.80;;
5813;SDS011;2933;52.302;8.134;2024-02-14T12:09:34;13.87;;;8.50;;
5813;SDS011;2933;52.302;8.134;2024-02-14T12:14:37;12.87;;;9.23;;
5813;SDS011;2933;52.302;8.134;2024-02-14T12:19:38;13.00;;;8.87;;
5813;SDS011;2933;52.302;8.134;2024-02-14T12:24:41;8.63;;;6.40;;
5813;SDS011;2933;52.302;8.134;2024-02-14T12:29:46;10.10;;;6.10;;
5813;SDS011;2933;52.302;8.134;2024-02-14T12:34:48;8.50;;;6.33;;
5813;SDS011;2933;52.302;8.134;2024-02-14T12:39:49;10.93;;;6.73;;
5813;SDS011;2933;52.302;8.134;2024-02-14T12:44:55;7.80;;;5.77;;
5813;SDS011;2933;52.302;8.134;2024-02-14T12:49:56;7.67;;;6.00;;
5813;SDS011;2933;52.302;8.134;2024-02-14T12:54:59;7.20;;;5.90;;
5813;SDS011;2933;52.302;8.134;2024-02-14T13:00:02;9.63;;;5.97;;
5813;SDS011;2933;52.302;8.134;2024-02-14T13:05:06;8.77;;;6.20;;
5813;SDS011;2933;52.302;8.134;2024-02-14T13:10:08;7.30;;;6.60;;
5813;SDS011;2933;52.302;8.134;2024-02-14T13:15:12;9.97;;;6.97;;
5813;SDS011;2933;52.302;8.134;2024-02-14T13:20:14;11.00;;;7.70;;
5813;SDS011;2933;52.302;8.134;2024-02-14T13:25:16;12.03;;;7.20;;
5813;SDS011;2933;52.302;8.134;2024-02-14T13:30:19;10.53;;;8.40;;
5813;SDS011;2933;52.302;8.134;2024-02-14T13:35:21;14.00;;;9.60;;
5813;SDS011;2933;52.302;8.134;2024-02-14T13:40:23;16.90;;;11.50;;
5813;SDS011;2933;52.302;8.134;2024-02-14T13:45:26;22.27;;;11.40;;
5813;SDS011;2933;52.302;8.134;2024-02-14T13:50:37;18.67;;;11.70;;
5813;SDS011;2933;52.302;8.134;2024-02-14T13:55:39;23.33;;;13.03;;
5813;SDS011;2933;52.302;8.134;2024-02-14T14:00:42;18.23;;;12.40;;
5813;SDS011;2933;52.302;8.134;2024-02-14T14:05:43;29.20;;;13.50;;
5813;SDS011;2933;52.302;8.134;2024-02-14T14:10:45;22.00;;;12.60;;
5813;SDS011;2933;52.302;8.134;2024-02-14T14:15:48;20.37;;;13.10;;
5813;SDS011;2933;52.302;8.134;2024-02-14T14:20:49;22.27;;;12.77;;
5813;SDS011;2933;52.302;8.134;2024-02-14T14:25:51;21.23;;;13.00;;
5813;SDS011;2933;52.302;8.134;2024-02-14T14:30:54;17.40;;;11.27;;
5813;SDS011;2933;52.302;8.134;2024-02-14T14:35:56;26.63;;;12.90;;
5813;SDS011;2933;52.302;8.134;2024-02-14T14:40:58;17.30;;;11.27;;
5813;SDS011;2933;52.302;8.134;2024-02-14T14:46:01;18.10;;;12.87;;
5813;SDS011;2933;52.302;8.134;2024-02-14T14:51:02;16.63;;;10.77;;
5813;SDS011;2933;52.302;8.134;2024-02-14T14:56:05;17.97;;;11.43;;
5813;SDS011;2933;52.302;8.134;2024-02-14T15:01:08;19.43;;;11.00;;
5813;SDS011;2933;52.302;8.134;2024-02-14T15:06:10;24.33;;;13.30;;
5813;SDS011;2933;52.302;8.134;2024-02-14T15:11:13;26.40;;;14.17;;
5813;SDS011;2933;52.302;8.134;2024-02-14T15:16:18;21.97;;;12.83;;
5813;SDS011;2933;52.302;8.134;2024-02-14T15:21:21;19.50;;;13.00;;
5813;SDS011;2933;52.302;8.134;2024-02-14T15:26:22;19.07;;;11.63;;
5813;SDS011;2933;52.302;8.134;2024-02-14T15:31:26;15.43;;;10.03;;
5813;SDS011;2933;52.302;8.134;2024-02-14T15:36:45;17.90;;;9.23;;
5813;SDS011;2933;52.302;8.134;2024-02-14T15:41:46;10.43;;;8.03;;
5813;SDS011;2933;52.302;8.134;2024-02-14T15:46:49;10.40;;;6.80;;
5813;SDS011;2933;52.302;8.134;2024-02-14T15:51:51;6.57;;;5.70;;
5813;SDS011;2933;52.302;8.134;2024-02-14T15:56:53;5.40;;;4.90;;
5813;SDS011;2933;52.302;8.134;2024-02-14T16:01:56;5.13;;;4.60;;
5813;SDS011;2933;52.302;8.134;2024-02-14T16:06:59;6.40;;;4.90;;
5813;SDS011;2933;52.302;8.134;2024-02-14T16:12:01;6.53;;;5.50;;
5813;SDS011;2933;52.302;8.134;2024-02-14T16:17:04;6.10;;;5.50;;
5813;SDS011;2933;52.302;8.134;2024-02-14T16:22:06;7.37;;;6.63;;
5813;SDS011;2933;52.302;8.134;2024-02-14T16:27:07;8.50;;;6.90;;
5813;SDS011;2933;52.302;8.134;2024-02-14T16:32:10;8.83;;;7.23;;
5813;SDS011;2933;52.302;8.134;2024-02-14T16:37:12;8.30;;;6.80;;
5813;SDS011;2933;52.302;8.134;2024-02-14T16:42:17;8.60;;;6.70;;
5813;SDS011;2933;52.302;8.134;2024-02-14T16:47:20;10.20;;;6.27;;
5813;SDS011;2933;52.302;8.134;2024-02-14T16:52:22;5.20;;;4.80;;
5813;SDS011;2933;52.302;8.134;2024-02-14T16:57:23;4.70;;;4.30;;
5813;SDS011;2933;52.302;8.134;2024-02-14T17:02:26;3.70;;;3.40;;
5813;SDS011;2933;52.302;8.134;2024-02-14T17:07:28;11.90;;;6.17;;
5813;SDS011;2933;52.302;8.134;2024-02-14T17:12:30;3.57;;;3.27;;
5813;SDS011;2933;52.302;8.134;2024-02-14T17:17:33;2.73;;;2.63;;
5813;SDS011;2933;52.302;8.134;2024-02-14T17:22:35;3.10;;;2.90;;
5813;SDS011;2933;52.302;8.134;2024-02-14T17:27:37;3.77;;;3.50;;
5813;SDS011;2933;52.302;8.134;2024-02-14T17:32:40;4.27;;;3.90;;
5813;SDS011;2933;52.302;8.134;2024-02-14T17:37:46;4.43;;;4.03;;
5813;SDS011;2933;52.302;8.134;2024-02-14T17:42:47;5.68;;;5.07;;
5813;SDS011;2933;52.302;8.134;2024-02-14T17:47:50;6.53;;;4.20;;
5813;SDS011;2933;52.302;8.134;2024-02-14T17:52:52;5.00;;;4.50;;
5813;SDS011;2933;52.302;8.134;2024-02-14T17:57:54;4.20;;;3.90;;
5813;SDS011;2933;52.302;8.134;2024-02-14T18:02:56;3.70;;;3.50;;
5813;SDS011;2933;52.302;8.134;2024-02-14T18:07:58;8.13;;;3.60;;
5813;SDS011;2933;52.302;8.134;2024-02-14T18:13:00;4.67;;;4.27;;
5813;SDS011;2933;52.302;8.134;2024-02-14T18:18:03;5.67;;;4.47;;
5813;SDS011;2933;52.302;8.134;2024-02-14T18:23:05;5.67;;;4.60;;
5813;SDS011;2933;52.302;8.134;2024-02-14T18:28:07;7.20;;;5.63;;
5813;SDS011;2933;52.302;8.134;2024-02-14T18:33:10;8.97;;;5.40;;
5813;SDS011;2933;52.302;8.134;2024-02-14T18:38:12;9.23;;;6.70;;
5813;SDS011;2933;52.302;8.134;2024-02-14T18:43:13;8.60;;;6.40;;
5813;SDS011;2933;52.302;8.134;2024-02-14T18:48:16;11.43;;;7.50;;
5813;SDS011;2933;52.302;8.134;2024-02-14T18:53:18;7.43;;;6.37;;
5813;SDS011;2933;52.302;8.134;2024-02-14T18:58:19;10.60;;;6.60;;
5813;SDS011;2933;52.302;8.134;2024-02-14T19:03:22;10.10;;;6.67;;
5813;SDS011;2933;52.302;8.134;2024-02-14T19:08:24;12.17;;;7.73;;
5813;SDS011;2933;52.302;8.134;2024-02-14T19:13:26;11.37;;;7.33;;
5813;SDS011;2933;52.302;8.134;2024-02-14T19:18:29;10.67;;;7.90;;
5813;SDS011;2933;52.302;8.134;2024-02-14T19:23:31;11.53;;;7.80;;
5813;SDS011;2933;52.302;8.134;2024-02-14T19:28:36;8.90;;;7.43;;
5813;SDS011;2933;52.302;8.134;2024-02-14T19:33:39;10.90;;;7.40;;
5813;SDS011;2933;52.302;8.134;2024-02-14T19:38:45;9.90;;;7.50;;
5813;SDS011;2933;52.302;8.134;2024-02-14T19:43:47;8.10;;;6.33;;
5813;SDS011;2933;52.302;8.134;2024-02-14T19:48:50;11.30;;;7.60;;
5813;SDS011;2933;52.302;8.134;2024-02-14T19:53:51;8.80;;;6.30;;
5813;SDS011;2933;52.302;8.134;2024-02-14T19:58:53;7.87;;;6.13;;
5813;SDS011;2933;52.302;8.134;2024-02-14T20:03:57;12.53;;;6.93;;
5813;SDS011;2933;52.302;8.134;2024-02-14T20:09:00;10.53;;;6.90;;
5813;SDS011;2933;52.302;8.134;2024-02-14T20:14:02;9.93;;;6.60;;
5813;SDS011;2933;52.302;8.134;2024-02-14T20:19:06;15.07;;;7.43;;
5813;SDS011;2933;52.302;8.134;2024-02-14T20:24:08;11.60;;;7.33;;
5813;SDS011;2933;52.302;8.134;2024-02-14T20:29:10;10.73;;;7.50;;
5813;SDS011;2933;52.302;8.134;2024-02-14T20:34:13;16.17;;;7.80;;
5813;SDS011;2933;52.302;8.134;2024-02-14T20:39:15;11.80;;;8.73;;
5813;SDS011;2933;52.302;8.134;2024-02-14T20:44:17;13.03;;;8.40;;
5813;SDS011;2933;52.302;8.134;2024-02-14T20:49:21;16.13;;;9.50;;
5813;SDS011;2933;52.302;8.134;2024-02-14T20:54:23;20.40;;;10.47;;
5813;SDS011;2933;52.302;8.134;2024-02-14T20:59:24;13.10;;;8.83;;
5813;SDS011;2933;52.302;8.134;2024-02-14T21:04:28;19.43;;;10.90;;
5813;SDS011;2933;52.302;8.134;2024-02-14T21:09:30;16.70;;;10.03;;
5813;SDS011;2933;52.302;8.134;2024-02-14T21:14:32;16.90;;;9.33;;
5813;SDS011;2933;52.302;8.134;2024-02-14T21:19:35;20.20;;;10.10;;
5813;SDS011;2933;52.302;8.134;2024-02-14T21:24:37;19.10;;;10.43;;
5813;SDS011;2933;52.302;8.134;2024-02-14T21:29:38;18.37;;;10.70;;
5813;SDS011;2933;52.302;8.134;2024-02-14T21:34:41;20.47;;;10.60;;
5813;SDS011;2933;52.302;8.134;2024-02-14T21:39:43;18.60;;;10.70;;
5813;SDS011;2933;52.302;8.134;2024-02-14T21:44:44;19.67;;;11.10;;
5813;SDS011;2933;52.302;8.134;2024-02-14T21:49:47;15.73;;;9.70;;
5813;SDS011;2933;52.302;8.134;2024-02-14T21:54:49;18.13;;;9.57;;
5813;SDS011;2933;52.302;8.134;2024-02-14T21:59:51;20.67;;;10.00;;
5813;SDS011;2933;52.302;8.134;2024-02-14T22:04:54;18.70;;;10.60;;
5813;SDS011;2933;52.302;8.134;2024-02-14T22:09:55;13.27;;;8.97;;
5813;SDS011;2933;52.302;8.134;2024-02-14T22:14:57;23.40;;;9.90;;
5813;SDS011;2933;52.302;8.134;2024-02-14T22:20:00;17.40;;;9.83;;
5813;SDS011;2933;52.302;8.134;2024-02-14T22:25:01;17.10;;;8.67;;
5813;SDS011;2933;52.302;8.134;2024-02-14T22:30:04;18.63;;;10.40;;
5813;SDS011;2933;52.302;8.134;2024-02-14T22:35:09;15.77;;;9.50;;
5813;SDS011;2933;52.302;8.134;2024-02-14T22:40:11;17.50;;;8.60;;
5813;SDS011;2933;52.302;8.134;2024-02-14T22:45:13;14.33;;;8.83;;
5813;SDS011;2933;52.302;8.134;2024-02-14T22:50:16;15.83;;;9.20;;
5813;SDS011;2933;52.302;8.134;2024-02-14T22:55:18;14.40;;;9.07;;
5813;SDS011;2933;52.302;8.134;2024-02-14T23:00:20;16.83;;;9.40;;
5813;SDS011;2933;52.302;8.134;2024-02-14T23:05:24;14.00;;;8.77;;
5813;SDS011;2933;52.302;8.134;2024-02-14T23:10:26;11.73;;;8.17;;
5813;SDS011;2933;52.302;8.134;2024-02-14T23:15:27;14.27;;;8.80;;
5813;SDS011;2933;52.302;8.134;2024-02-14T23:20:30;14.50;;;9.10;;
5813;SDS011;2933;52.302;8.134;2024-02-14T23:25:33;15.83;;;9.30;;
5813;SDS011;2933;52.302;8.134;2024-02-14T23:30:34;20.63;;;8.67;;
5813;SDS011;2933;52.302;8.134;2024-02-14T23:35:41;19.00;;;9.30;;
5813;SDS011;2933;52.302;8.134;2024-02-14T23:40:43;17.60;;;9.20;;
5813;SDS011;2933;52.302;8.134;2024-02-14T23:45:45;16.40;;;9.40;;
5813;SDS011;2933;52.302;8.134;2024-02-14T23:50:48;17.00;;;8.87;;
5813;SDS011;2933;52.302;8.134;2024-02-14T23:55:50;17.00;;;9.93;;
